»·PEaware :: N9574A KBFL-KSAN

N9574A :: KBFL-KSAN

FLIGHT INFORMATION

Flight Status: Arrived
Operator: Privately registered:
United States
More flights under this callsign
Pilot: Mitch R. (11204)
Aircraft: Unknown
(EA55)
More flights by this aircraft type
Origin: KBFL Meadows
United States
Destination: KSAN San Diego Intl-Lindbergh
United States
More flights between these airports :: More routes between these airports
Route: MARIC4 LHS LAX BAYVU5
File this flight plan on PilotEdge
Remarks:
Altitude:
(Current/Filed)
21,000ft
Speed:
(Current/Filed)
370kts
Departed: 19-Dec-17 07:17 PM
Arrived: 19-Dec-17 08:04 PM
Distance/Time
Traveled:
187nm/0:47
Distance/Time
To Go:
Arrived

Flight Plot

Page will automatically refresh every two minutes.

Flight plan parsing failed; only flown route is shown


Map Options




Map Legend


Flown Route
Filed Route
Departure Airport
Arrival Airport
Navaid (VOR, NDB)
Fix

Horizontal Profiles

Position Reports

Time Latitude Longitude Heading Altitude Ground
Speed
19-Dec-17 19:13 35.426210 -119.042681 179 496ft 0kts
19-Dec-17 19:14 35.426210 -119.042681 179 496ft 0kts
19-Dec-17 19:15 35.426210 -119.042681 179 496ft 0kts
19-Dec-17 19:16 35.426210 -119.042681 179 496ft 0kts
19-Dec-17 19:17 35.426210 -119.042681 179 496ft 0kts
19-Dec-17 19:18 35.426210 -119.042681 179 496ft 0kts
19-Dec-17 19:19 35.426162 -119.042683 183 496ft 0kts
19-Dec-17 19:20 35.425648 -119.043393 266 496ft 4kts
19-Dec-17 19:21 35.425869 -119.044509 272 496ft 0kts
19-Dec-17 19:22 35.425317 -119.045755 279 496ft 9kts
19-Dec-17 19:23 35.437006 -119.063770 287 1035ft 137kts
19-Dec-17 19:24 35.424847 -119.109037 253 3366ft 173kts
19-Dec-17 19:25 35.401397 -119.156507 210 6198ft 183kts
19-Dec-17 19:26 35.362891 -119.183514 209 8603ft 188kts
19-Dec-17 19:27 35.319008 -119.213483 214 10857ft 198kts
19-Dec-17 19:28 35.273557 -119.244728 216 13382ft 187kts
19-Dec-17 19:29 35.230014 -119.251634 134 15474ft 211kts
19-Dec-17 19:30 35.196823 -119.197726 130 17307ft 215kts
19-Dec-17 19:31 35.162719 -119.140684 130 19048ft 219kts
19-Dec-17 19:32 35.130557 -119.086332 129 20552ft 223kts
19-Dec-17 19:33 35.097163 -119.029737 128 21190ft 266kts
19-Dec-17 19:34 35.052600 -118.954446 132 21207ft 325kts
19-Dec-17 19:35 34.983600 -118.881101 142 21221ft 361kts
19-Dec-17 19:36 34.907063 -118.802955 142 21239ft 382kts
19-Dec-17 19:37 34.830651 -118.725665 142 21211ft 383kts
19-Dec-17 19:38 34.749908 -118.644281 142 21235ft 389kts
19-Dec-17 19:39 34.662065 -118.577933 170 21200ft 380kts
19-Dec-17 19:40 34.561111 -118.554308 173 21159ft 379kts
19-Dec-17 19:41 34.462057 -118.534308 173 21159ft 378kts
19-Dec-17 19:42 34.368975 -118.516177 173 21179ft 378kts
19-Dec-17 19:43 34.272073 -118.497434 173 21212ft 378kts
19-Dec-17 19:44 34.175927 -118.478924 173 21213ft 378kts
19-Dec-17 19:45 34.086065 -118.461666 173 21213ft 377kts
19-Dec-17 19:46 33.990284 -118.443320 173 21213ft 377kts
19-Dec-17 19:47 33.905067 -118.389847 137 21214ft 387kts
19-Dec-17 19:48 33.850443 -118.323997 135 21208ft 387kts
19-Dec-17 19:49 33.782510 -118.238381 134 21208ft 387kts
19-Dec-17 19:50 33.715549 -118.153083 134 21124ft 383kts
19-Dec-17 19:51 33.644193 -118.062177 134 20151ft 386kts
19-Dec-17 19:52 33.573403 -117.972169 134 19430ft 380kts
19-Dec-17 19:53 33.503767 -117.883856 134 18488ft 379kts
19-Dec-17 19:54 33.436255 -117.798439 135 17728ft 364kts
19-Dec-17 19:55 33.368721 -117.713256 135 16758ft 359kts
19-Dec-17 19:56 33.301270 -117.628359 134 15788ft 358kts
19-Dec-17 19:57 33.230327 -117.551041 144 14986ft 349kts
19-Dec-17 19:58 33.154132 -117.483121 147 14947ft 349kts
19-Dec-17 19:59 33.077396 -117.421258 147 13169ft 342kts
19-Dec-17 20:00 33.004287 -117.362711 147 11237ft 308kts
19-Dec-17 20:01 32.939777 -117.311255 148 9394ft 299kts
19-Dec-17 20:02 32.882649 -117.265747 146 7706ft 286kts
19-Dec-17 20:03 32.832572 -117.221434 134 5944ft 247kts
19-Dec-17 20:04 32.799974 -117.175045 114 4094ft 213kts
19-Dec-17 20:05 32.787920 -117.127417 103 3002ft 188kts
19-Dec-17 20:06 32.762769 -117.098924 178 2042ft 178kts
19-Dec-17 20:07 32.727012 -117.107596 203 1446ft 149kts
19-Dec-17 20:08 32.721359 -117.139660 288 954ft 124kts
19-Dec-17 20:09 32.728779 -117.169985 288 219ft 102kts
19-Dec-17 20:10 32.734169 -117.192177 286 16ft 25kts

Navigation Log

Ident Type
Flight plan parsing failed, navigation log unavailable